Date,TemperatureHighF,TemperatureAvgF,TemperatureLowF,DewpointHighF,DewpointAvgF,DewpointLowF,HumidityHigh,HumidityAvg,HumidityLow,PressureMaxIn,PressureMinIn,WindSpeedMaxMPH,WindSpeedAvgMPH,GustSpeedMaxMPH,PrecipitationSumIn
2013-11-1,54.1,42.8,35.9,40.4,36.4,32.4,92,79,56,29.89,29.48,27,9,27,0.00
2013-11-2,52.7,39.9,28.3,37.2,32.3,24.3,91,75,49,30.09,29.89,16,5,16,0.00
2013-11-3,55.4,43.9,30.9,36.5,32.1,26.3,84,65,40,30.04,29.72,37,12,37,0.00
2013-11-4,50.2,40.3,20.9,41.0,33.3,17.6,88,77,56,30.14,29.73,19,6,19,0.02
2013-11-5,37.8,28.3,17.4,33.2,25.4,14.4,98,89,79,30.22,29.98,16,3,16,0.05
2013-11-6,32.9,28.3,24.8,27.4,24.3,19.7,93,85,76,30.23,30.05,18,4,18,0.20
2013-11-7,34.2,28.4,24.3,27.2,24.1,19.8,92,84,71,30.34,30.22,15,6,16,0.00
2013-11-8,49.4,38.4,23.2,39.9,30.8,18.8,84,74,62,30.24,29.64,28,8,28,0.00
2013-11-9,45.4,38.7,27.2,36.5,31.6,22.0,89,76,62,30.31,29.75,27,10,27,0.00
2013-11-10,41.0,30.6,15.7,31.3,24.7,12.4,89,79,62,30.39,30.09,15,4,15,0.00
2013-11-11,39.3,19.7,8.4,32.7,13.9,3.1,86,78,69,30.79,30.10,18,4,18,0.00
2013-11-12,28.0,14.6,-0.4,16.2,7.0,-4.6,92,72,56,30.90,30.52,15,5,15,0.00
2013-11-13,51.7,35.5,20.9,32.9,24.0,11.6,74,63,47,30.52,29.91,29,10,29,0.00
2013-11-14,54.7,36.4,21.9,41.7,30.7,18.9,90,80,59,29.91,29.80,14,3,14,0.00
2013-11-15,55.5,38.4,21.3,41.5,31.6,18.8,92,78,54,29.85,29.56,17,4,19,0.01
2013-11-16,57.3,43.9,36.4,50.0,38.8,27.9,97,83,64,29.56,29.18,23,8,23,0.00
2013-11-17,48.2,40.1,32.1,37.9,33.5,26.1,91,78,59,29.92,29.31,28,8,28,0.01
2013-11-18,42.2,29.8,17.7,28.9,23.3,13.9,92,78,55,30.24,29.92,17,5,19,0.00
2013-11-19,55.2,41.4,24.9,35.3,29.8,21.0,92,65,45,30.22,29.82,28,12,28,0.00
2013-11-20,50.9,41.3,25.6,34.0,30.4,22.6,89,66,52,29.97,29.75,21,7,21,0.00
2013-11-21,29.9,21.2,14.8,27.3,16.3,9.5,90,81,71,30.60,29.97,21,6,21,0.00
2013-11-22,29.5,16.4,-0.4,14.2,7.0,-5.8,80,67,44,30.73,30.57,17,4,17,0.00
2013-11-23,16.8,6.1,-2.5,3.7,-1.4,-8.6,80,72,51,30.92,30.72,13,2,13,0.00
2013-11-24,31.7,18.8,0.9,16.5,9.2,-4.1,85,66,52,30.79,30.10,30,12,30,0.00
2013-11-25,41.6,30.9,24.5,27.6,21.6,15.6,83,69,54,30.16,30.01,23,8,23,0.00
2013-11-26,30.4,20.2,8.7,20.9,9.1,2.8,77,63,45,30.43,30.14,25,7,25,0.00
2013-11-27,25.7,14.1,-0.3,10.7,5.7,-4.5,91,70,51,30.44,30.04,20,4,20,0.00
2013-11-28,27.5,14.8,0.0,16.5,8.0,-4.4,91,75,61,30.55,30.06,20,4,20,0.00
2013-11-29,35.5,20.8,0.7,21.9,13.3,-3.6,92,73,57,30.55,30.13,23,6,23,0.00
2013-11-30,46.6,31.6,20.1,30.3,23.5,16.3,88,73,52,30.19,30.05,13,2,13,0.00